GCGM

La Gomera Airport

Alajero, La Gomera Island, Spain
METAR GCGM 121900Z AUTO 27007KT 9999 NCD 19/14 Q1024 RMK R09/28006KT 240V310 ARP/29006KT
Observed Flight Rules
Dec-12 @ 19:00 UTC (25 minutes ago) Visual Flight Rules
Wind Visibility Clouds
270° at 7 knots 10,000+ meters
  • Clear skies
Temperatures Readings
Current 19°C / 66°F
Dewpoint 14°C / 57°F
Humidity 73%
Altimeter 30.24" Hg
Pressure 1024 hPa
Elevation 219
METAR GCGM 121900Z AUTO 27007KT 9999 NCD 19/14 Q1024 RMK R09/28006KT 240V310 ARP/29006KT
Observed Flight Rules
Dec-12 @ 19:00 UTC
(25 minutes ago)
VFR
Wind Visibility
270° at 7 knots 10,000+ meters
Clouds
  • Clear skies
Temperature Dewpoint
19°C / 66°F 14°C / 57°F
Humidity Altimeter Pressure
73% 30.24" Hg 1024 hPa